Newport, OR (97365)

11:47 AM PDT on August 30, 2015 (GMT -0700)
K7BAW-Agate Beach | | Change Station
CLOSE
Current Station
Personal Weather Station
Location: Newport, OR
Elevation: 75 ft
Nearby Weather Stations

Elev 75 ft 44.66 °N, 124.05 °W | Updated 56 seconds ago

Partly Cloudy
Partly Cloudy
60.8 °F
Feels Like 60.8 °F
N
0.0
Wind Variable Wind from ESE
Gusts 2.0 mph

Today
High -- | Low -- °F
--% Chance of Precip.
Yesterday
High -- | Low -- °F
Precip. -- in
6:35 AM 7:56 PM
Full, 98% visible
Pressure 30.05 in
Visibility 7.0 miles
Clouds Clear
Dew Point 60 °F
Humidity 97%
Rainfall 0.02 in
Snow Depth Not available.
UV 7 out of 12
Pollen .50 out of 12
Air Quality Not available.
Flu Activity Not available.
METAR KONP 301835Z AUTO 19011G14KT 7SM CLR 17/14 A3005 RMK AO2
Pressure 30.05 in
Visibility 7.0 miles
Clouds Clear
Dew Point 60 °F
Humidity 97%
Rainfall 0.02 in
Snow Depth Not available.
UV 7 out of 12
Pollen .50 out of 12
Air Quality Not available.
Flu Activity Not available.
METAR KONP 301835Z AUTO 19011G14KT 7SM CLR 17/14 A3005 RMK AO2

10-Day Weather Forecast

×

Almanac

Astronomy

Aug. 30, 2015 Rise Set
Actual Time
Civil Twilight
Nautical Twilight
Astronomical Twilight
Moon
Length of Visible Light
Length of Day
Tomorrow will be .
, % of the Moon is Illuminated

Today's Extremes

State Highs State Lows

Community

WunderPhotos

Upload Photos

1,851,031 photos uploaded!

WunderBlogs® & News

Nearby

Air Quality

  Air Quality AQ Index Pollutant
Not available.

Snow Depth

Station Depth Elevation

Earthquake Activity

City Distance Mag. Time & Date
Minimum magnitude displayed is 2.5.

Coastal Water Temperatures

Place Temperature

Stations

Nearby Weather Stations

Station Location Temp. Windchill Dew Point Humidity Wind Precip. Elev Updated Type